AZU2943 SBSV-SBFN
Flight info
| Callsign | AZU2943 |
|---|---|
| Flight time | 1h 46m |
| Altitude | 29000 |
| Route | ARVO1A ARVOR DCT SIPEP UZ14 AMBET UN857 EDVUP |
| Aircraft | E195/M-SDE3GILORVW/S |
Departure
| Time | 2026-04-20 20:44 |
|---|---|
| Airport | Deputado Luiz Eduardo Magalhães International Airport (SBSV) |
Arrival
| Time | 2026-04-20 22:31 |
|---|---|
| Airport | Fernando de Noronha Airport (SBFN) |
| Time | Latitude | Longitude | Altitude | Speed | Heading |
|---|---|---|---|---|---|
| 2026-04-20 20:24 | -12.91391 | -38.33212 | 40 ft | 0 kts | 276° |
| 2026-04-20 20:35 | -12.91391 | -38.33208 | 39 ft | 2 kts | 276° |
| 2026-04-20 20:35 | -12.91393 | -38.33191 | 40 ft | 2 kts | 278° |
| 2026-04-20 20:35 | -12.91396 | -38.33174 | 42 ft | 2 kts | 281° |
| 2026-04-20 20:35 | -12.91399 | -38.33158 | 41 ft | 2 kts | 292° |
| 2026-04-20 20:36 | -12.91409 | -38.33144 | 39 ft | 2 kts | 342° |
| 2026-04-20 20:36 | -12.91416 | -38.33142 | 40 ft | 0 kts | 348° |
| 2026-04-20 20:39 | -12.91413 | -38.33143 | 42 ft | 1 kts | 348° |
| 2026-04-20 20:39 | -12.91399 | -38.33146 | 42 ft | 3 kts | 348° |
| 2026-04-20 20:39 | -12.91367 | -38.33153 | 42 ft | 6 kts | 348° |
| 2026-04-20 20:40 | -12.91316 | -38.33163 | 42 ft | 9 kts | 348° |
| 2026-04-20 20:40 | -12.91249 | -38.33178 | 42 ft | 11 kts | 348° |
| 2026-04-20 20:40 | -12.91212 | -38.33229 | 42 ft | 10 kts | 258° |
| 2026-04-20 20:40 | -12.91224 | -38.33300 | 42 ft | 11 kts | 271° |
| 2026-04-20 20:41 | -12.91199 | -38.33372 | 40 ft | 9 kts | 297° |
| 2026-04-20 20:41 | -12.91194 | -38.33382 | 41 ft | 0 kts | 298° |
| 2026-04-20 20:42 | -12.91191 | -38.33387 | 42 ft | 1 kts | 298° |
| 2026-04-20 20:42 | -12.91184 | -38.33401 | 42 ft | 3 kts | 298° |
| 2026-04-20 20:42 | -12.91171 | -38.33423 | 42 ft | 4 kts | 305° |
| 2026-04-20 20:42 | -12.91142 | -38.33441 | 42 ft | 6 kts | 346° |
| 2026-04-20 20:43 | -12.91104 | -38.33440 | 42 ft | 4 kts | 26° |
| 2026-04-20 20:43 | -12.91090 | -38.33416 | 42 ft | 2 kts | 79° |
| 2026-04-20 20:43 | -12.91089 | -38.33410 | 41 ft | 2 kts | 79° |
| 2026-04-20 20:43 | -12.91067 | -38.33302 | 40 ft | 41 kts | 78° |
| 2026-04-20 20:44 | -12.90970 | -38.32815 | 44 ft | 97 kts | 78° |
| 2026-04-20 20:44 | -12.90802 | -38.31979 | 49 ft | 145 kts | 81° |
| 2026-04-20 20:44 | -12.90567 | -38.30875 | 273 ft | 167 kts | 82° |
| 2026-04-20 20:44 | -12.90324 | -38.29654 | 678 ft | 183 kts | 79° |
| 2026-04-20 20:45 | -12.90012 | -38.28336 | 1291 ft | 198 kts | 78° |
| 2026-04-20 20:45 | -12.89638 | -38.26909 | 1850 ft | 213 kts | 78° |
| 2026-04-20 20:45 | -12.89276 | -38.25435 | 2721 ft | 213 kts | 79° |
| 2026-04-20 20:45 | -12.88918 | -38.23967 | 3561 ft | 216 kts | 79° |
| 2026-04-20 20:46 | -12.88537 | -38.22393 | 4099 ft | 238 kts | 79° |
| 2026-04-20 20:46 | -12.88119 | -38.20647 | 4588 ft | 263 kts | 78° |
| 2026-04-20 20:46 | -12.87668 | -38.18794 | 5413 ft | 272 kts | 78° |
| 2026-04-20 20:46 | -12.87208 | -38.16919 | 6360 ft | 276 kts | 78° |
| 2026-04-20 20:47 | -12.86743 | -38.15006 | 7274 ft | 278 kts | 78° |
| 2026-04-20 20:47 | -12.86272 | -38.13067 | 8136 ft | 283 kts | 77° |
| 2026-04-20 20:47 | -12.85792 | -38.11091 | 8978 ft | 289 kts | 77° |
| 2026-04-20 20:47 | -12.85302 | -38.09071 | 9854 ft | 295 kts | 77° |
| 2026-04-20 20:48 | -12.84712 | -38.07005 | 10420 ft | 312 kts | 66° |
| 2026-04-20 20:48 | -12.83424 | -38.05154 | 10991 ft | 326 kts | 46° |
| 2026-04-20 20:48 | -12.81814 | -38.03491 | 11799 ft | 331 kts | 45° |
| 2026-04-20 20:48 | -12.80187 | -38.01789 | 12653 ft | 335 kts | 46° |
| 2026-04-20 20:49 | -12.78564 | -38.00050 | 13556 ft | 339 kts | 46° |
| 2026-04-20 20:49 | -12.76928 | -37.98288 | 14292 ft | 345 kts | 45° |
| 2026-04-20 20:49 | -12.75274 | -37.96510 | 15065 ft | 349 kts | 45° |
| 2026-04-20 20:49 | -12.73586 | -37.94693 | 15841 ft | 354 kts | 45° |
| 2026-04-20 20:50 | -12.71881 | -37.92856 | 16631 ft | 358 kts | 45° |
| 2026-04-20 20:50 | -12.70148 | -37.90993 | 17367 ft | 363 kts | 45° |
| 2026-04-20 20:50 | -12.68387 | -37.89105 | 18059 ft | 369 kts | 44° |
| 2026-04-20 20:50 | -12.66603 | -37.87197 | 18686 ft | 372 kts | 44° |
| 2026-04-20 20:51 | -12.64802 | -37.85271 | 19278 ft | 376 kts | 44° |
| 2026-04-20 20:51 | -12.62979 | -37.83323 | 19862 ft | 379 kts | 44° |
| 2026-04-20 20:51 | -12.61147 | -37.81367 | 20433 ft | 383 kts | 44° |
| 2026-04-20 20:51 | -12.59288 | -37.79383 | 21000 ft | 387 kts | 44° |
| 2026-04-20 20:52 | -12.57440 | -37.77414 | 21544 ft | 390 kts | 44° |
| 2026-04-20 20:52 | -12.55548 | -37.75402 | 22091 ft | 394 kts | 44° |
| 2026-04-20 20:52 | -12.53641 | -37.73374 | 22632 ft | 397 kts | 44° |
| 2026-04-20 20:52 | -12.51711 | -37.71324 | 23174 ft | 401 kts | 44° |
| 2026-04-20 20:53 | -12.49768 | -37.69262 | 23668 ft | 404 kts | 44° |
| 2026-04-20 20:53 | -12.47809 | -37.67185 | 24070 ft | 407 kts | 44° |
| 2026-04-20 20:53 | -12.45831 | -37.65089 | 24488 ft | 410 kts | 44° |
| 2026-04-20 20:53 | -12.43845 | -37.62987 | 24888 ft | 413 kts | 43° |
| 2026-04-20 20:54 | -12.41837 | -37.60865 | 25265 ft | 416 kts | 43° |
| 2026-04-20 20:54 | -12.39820 | -37.58733 | 25646 ft | 418 kts | 43° |
| 2026-04-20 20:54 | -12.37791 | -37.56591 | 26023 ft | 421 kts | 43° |
| 2026-04-20 20:54 | -12.35743 | -37.54430 | 26401 ft | 423 kts | 43° |
| 2026-04-20 20:55 | -12.33710 | -37.52286 | 26763 ft | 426 kts | 43° |
| 2026-04-20 20:55 | -12.31641 | -37.50107 | 27132 ft | 429 kts | 43° |
| 2026-04-20 20:55 | -12.29560 | -37.47914 | 27479 ft | 431 kts | 43° |
| 2026-04-20 20:55 | -12.27450 | -37.45695 | 27853 ft | 433 kts | 43° |
| 2026-04-20 20:56 | -12.25345 | -37.43480 | 28188 ft | 435 kts | 42° |
| 2026-04-20 20:56 | -12.23229 | -37.41257 | 28520 ft | 438 kts | 42° |
| 2026-04-20 20:56 | -12.21097 | -37.39018 | 28824 ft | 440 kts | 42° |
| 2026-04-20 20:56 | -12.18980 | -37.36793 | 29054 ft | 432 kts | 42° |
| 2026-04-20 20:57 | -12.16916 | -37.34625 | 29008 ft | 420 kts | 42° |
| 2026-04-20 20:57 | -12.14888 | -37.32501 | 28964 ft | 414 kts | 42° |
| 2026-04-20 20:57 | -12.10900 | -37.28331 | 28952 ft | 414 kts | 42° |
| 2026-04-20 20:58 | -12.06874 | -37.24117 | 28949 ft | 414 kts | 42° |
| 2026-04-20 20:58 | -12.02843 | -37.19899 | 28953 ft | 413 kts | 41° |
| 2026-04-20 20:59 | -12.00665 | -37.18016 | 28950 ft | 408 kts | 29° |
| 2026-04-20 20:59 | -11.98239 | -37.16594 | 28970 ft | 405 kts | 24° |
| 2026-04-20 20:59 | -11.93210 | -37.13968 | 28932 ft | 405 kts | 23° |
| 2026-04-20 21:00 | -11.88196 | -37.11344 | 28939 ft | 405 kts | 23° |
| 2026-04-20 21:00 | -11.83185 | -37.08704 | 28950 ft | 405 kts | 24° |
| 2026-04-20 21:01 | -11.78173 | -37.06063 | 28945 ft | 405 kts | 24° |
| 2026-04-20 21:01 | -11.73159 | -37.03421 | 28945 ft | 405 kts | 23° |
| 2026-04-20 21:02 | -11.68165 | -37.00793 | 28946 ft | 407 kts | 24° |
| 2026-04-20 21:02 | -11.63142 | -36.98149 | 28940 ft | 406 kts | 24° |
| 2026-04-20 21:03 | -11.58118 | -36.95506 | 28940 ft | 405 kts | 24° |
| 2026-04-20 21:03 | -11.53106 | -36.92870 | 28941 ft | 406 kts | 24° |
| 2026-04-20 21:04 | -11.48087 | -36.90232 | 28941 ft | 405 kts | 24° |
| 2026-04-20 21:04 | -11.43066 | -36.87596 | 28942 ft | 406 kts | 24° |
| 2026-04-20 21:05 | -11.38069 | -36.84970 | 28944 ft | 406 kts | 24° |
| 2026-04-20 21:05 | -11.33046 | -36.82333 | 28943 ft | 406 kts | 24° |
| 2026-04-20 21:06 | -11.28021 | -36.79696 | 28940 ft | 406 kts | 24° |
| 2026-04-20 21:06 | -11.23040 | -36.77083 | 28940 ft | 406 kts | 24° |
| 2026-04-20 21:07 | -11.18014 | -36.74447 | 28933 ft | 405 kts | 24° |
| 2026-04-20 21:07 | -11.12995 | -36.71817 | 28943 ft | 406 kts | 24° |
| 2026-04-20 21:08 | -11.07979 | -36.69189 | 28941 ft | 406 kts | 24° |
| 2026-04-20 21:08 | -11.02939 | -36.66549 | 28940 ft | 406 kts | 24° |
| 2026-04-20 21:09 | -10.97916 | -36.63919 | 28940 ft | 406 kts | 24° |
| 2026-04-20 21:09 | -10.92926 | -36.61308 | 28940 ft | 406 kts | 24° |
| 2026-04-20 21:10 | -10.87901 | -36.58680 | 28947 ft | 407 kts | 24° |
| 2026-04-20 21:10 | -10.82860 | -36.56043 | 28943 ft | 407 kts | 24° |
| 2026-04-20 21:11 | -10.77825 | -36.53410 | 28942 ft | 406 kts | 24° |
| 2026-04-20 21:11 | -10.72795 | -36.50783 | 28943 ft | 406 kts | 24° |
| 2026-04-20 21:12 | -10.67757 | -36.48151 | 28943 ft | 406 kts | 24° |
| 2026-04-20 21:12 | -10.62755 | -36.45539 | 28937 ft | 406 kts | 24° |
| 2026-04-20 21:13 | -10.57706 | -36.42905 | 28943 ft | 408 kts | 24° |
| 2026-04-20 21:13 | -10.52655 | -36.40268 | 28943 ft | 407 kts | 24° |
| 2026-04-20 21:14 | -10.47601 | -36.37633 | 28942 ft | 408 kts | 24° |
| 2026-04-20 21:14 | -10.42549 | -36.34999 | 28943 ft | 408 kts | 24° |
| 2026-04-20 21:15 | -10.37540 | -36.32388 | 28944 ft | 407 kts | 24° |
| 2026-04-20 21:15 | -10.32666 | -36.29411 | 28956 ft | 410 kts | 32° |
| 2026-04-20 21:16 | -10.27998 | -36.26098 | 28941 ft | 410 kts | 32° |
| 2026-04-20 21:16 | -10.23314 | -36.22771 | 28939 ft | 409 kts | 32° |
| 2026-04-20 21:17 | -10.18648 | -36.19462 | 28947 ft | 409 kts | 32° |
| 2026-04-20 21:17 | -10.13972 | -36.16150 | 28945 ft | 409 kts | 32° |
| 2026-04-20 21:18 | -10.09330 | -36.12863 | 28942 ft | 409 kts | 32° |
| 2026-04-20 21:18 | -10.04660 | -36.09559 | 28940 ft | 408 kts | 32° |
| 2026-04-20 21:19 | -10.00002 | -36.06262 | 28946 ft | 408 kts | 32° |
| 2026-04-20 21:20 | -9.93019 | -36.01322 | 28948 ft | 408 kts | 32° |
| 2026-04-20 21:20 | -9.89140 | -35.98581 | 28947 ft | 408 kts | 32° |
| 2026-04-20 21:21 | -9.83723 | -35.94753 | 28943 ft | 408 kts | 32° |
| 2026-04-20 21:21 | -9.79062 | -35.91460 | 28944 ft | 408 kts | 33° |
| 2026-04-20 21:22 | -9.74400 | -35.88167 | 28944 ft | 408 kts | 33° |
| 2026-04-20 21:22 | -9.69757 | -35.84889 | 28942 ft | 408 kts | 33° |
| 2026-04-20 21:23 | -9.65089 | -35.81595 | 28939 ft | 408 kts | 33° |
| 2026-04-20 21:23 | -9.60431 | -35.78309 | 28938 ft | 408 kts | 33° |
| 2026-04-20 21:24 | -9.56549 | -35.75572 | 28942 ft | 408 kts | 33° |
| 2026-04-20 21:24 | -9.51884 | -35.72282 | 28938 ft | 408 kts | 33° |
| 2026-04-20 21:25 | -9.47219 | -35.68994 | 28942 ft | 408 kts | 33° |
| 2026-04-20 21:25 | -9.42549 | -35.65703 | 28947 ft | 408 kts | 33° |
| 2026-04-20 21:26 | -9.37880 | -35.62415 | 28940 ft | 409 kts | 33° |
| 2026-04-20 21:26 | -9.33216 | -35.59132 | 28949 ft | 408 kts | 33° |
| 2026-04-20 21:27 | -9.28550 | -35.55847 | 28954 ft | 408 kts | 33° |
| 2026-04-20 21:27 | -9.23908 | -35.52583 | 28938 ft | 409 kts | 33° |
| 2026-04-20 21:28 | -9.19226 | -35.49286 | 28939 ft | 409 kts | 33° |
| 2026-04-20 21:28 | -9.14553 | -35.45990 | 28944 ft | 409 kts | 33° |
| 2026-04-20 21:29 | -9.09876 | -35.42691 | 28948 ft | 409 kts | 33° |
| 2026-04-20 21:29 | -9.05202 | -35.39399 | 28943 ft | 409 kts | 33° |
| 2026-04-20 21:30 | -9.00557 | -35.36129 | 28944 ft | 409 kts | 33° |
| 2026-04-20 21:30 | -8.95878 | -35.32836 | 28947 ft | 410 kts | 33° |
| 2026-04-20 21:31 | -8.91180 | -35.29528 | 28945 ft | 411 kts | 33° |
| 2026-04-20 21:31 | -8.86477 | -35.26219 | 28947 ft | 411 kts | 33° |
| 2026-04-20 21:32 | -8.81775 | -35.22921 | 28943 ft | 410 kts | 33° |
| 2026-04-20 21:32 | -8.77116 | -35.19652 | 28949 ft | 410 kts | 33° |
| 2026-04-20 21:33 | -8.72418 | -35.16356 | 28945 ft | 410 kts | 33° |
| 2026-04-20 21:33 | -8.67716 | -35.13059 | 28939 ft | 410 kts | 33° |
| 2026-04-20 21:34 | -8.63044 | -35.09784 | 28940 ft | 408 kts | 33° |
| 2026-04-20 21:34 | -8.58373 | -35.06509 | 28947 ft | 409 kts | 33° |
| 2026-04-20 21:35 | -8.53727 | -35.03254 | 28934 ft | 409 kts | 33° |
| 2026-04-20 21:35 | -8.49024 | -34.99960 | 28936 ft | 409 kts | 33° |
| 2026-04-20 21:36 | -8.44387 | -34.96712 | 28943 ft | 408 kts | 33° |
| 2026-04-20 21:36 | -8.39714 | -34.93441 | 28928 ft | 408 kts | 33° |
| 2026-04-20 21:37 | -8.35051 | -34.90177 | 28925 ft | 406 kts | 33° |
| 2026-04-20 21:37 | -8.30424 | -34.86940 | 28917 ft | 407 kts | 33° |
| 2026-04-20 21:38 | -8.25765 | -34.83682 | 28920 ft | 407 kts | 33° |
| 2026-04-20 21:38 | -8.21111 | -34.80428 | 28914 ft | 407 kts | 33° |
| 2026-04-20 21:39 | -8.16474 | -34.77159 | 28923 ft | 407 kts | 36° |
| 2026-04-20 21:39 | -8.12069 | -34.73566 | 28925 ft | 407 kts | 38° |
| 2026-04-20 21:40 | -8.07673 | -34.69987 | 28927 ft | 405 kts | 38° |
| 2026-04-20 21:40 | -8.03276 | -34.66457 | 28939 ft | 405 kts | 37° |
| 2026-04-20 21:41 | -7.98850 | -34.62915 | 28929 ft | 406 kts | 38° |
| 2026-04-20 21:41 | -7.94425 | -34.59368 | 28937 ft | 406 kts | 37° |
| 2026-04-20 21:42 | -7.89997 | -34.55819 | 28937 ft | 406 kts | 38° |
| 2026-04-20 21:42 | -7.85573 | -34.52282 | 28936 ft | 406 kts | 38° |
| 2026-04-20 21:43 | -7.81174 | -34.48762 | 28948 ft | 403 kts | 37° |
| 2026-04-20 21:43 | -7.76835 | -34.45302 | 28926 ft | 394 kts | 35° |
| 2026-04-20 21:44 | -7.72044 | -34.42577 | 28933 ft | 396 kts | 27° |
| 2026-04-20 21:44 | -7.67146 | -34.40024 | 28927 ft | 395 kts | 26° |
| 2026-04-20 21:45 | -7.62256 | -34.37479 | 28933 ft | 396 kts | 26° |
| 2026-04-20 21:45 | -7.57402 | -34.34951 | 28943 ft | 397 kts | 27° |
| 2026-04-20 21:46 | -7.52491 | -34.32395 | 28932 ft | 397 kts | 27° |
| 2026-04-20 21:46 | -7.47606 | -34.29854 | 28930 ft | 395 kts | 27° |
| 2026-04-20 21:47 | -7.42719 | -34.27311 | 28932 ft | 395 kts | 27° |
| 2026-04-20 21:47 | -7.37829 | -34.24769 | 28936 ft | 395 kts | 27° |
| 2026-04-20 21:48 | -7.32939 | -34.22226 | 28937 ft | 394 kts | 27° |
| 2026-04-20 21:48 | -7.28056 | -34.19688 | 28935 ft | 394 kts | 27° |
| 2026-04-20 21:49 | -7.23195 | -34.17161 | 28936 ft | 396 kts | 27° |
| 2026-04-20 21:49 | -7.18314 | -34.14627 | 28939 ft | 394 kts | 27° |
| 2026-04-20 21:50 | -7.13442 | -34.12094 | 28935 ft | 395 kts | 27° |
| 2026-04-20 21:50 | -7.08565 | -34.09561 | 28933 ft | 395 kts | 27° |
| 2026-04-20 21:51 | -7.03681 | -34.07026 | 28934 ft | 394 kts | 27° |
| 2026-04-20 21:51 | -6.98803 | -34.04494 | 28932 ft | 394 kts | 27° |
| 2026-04-20 21:52 | -6.93961 | -34.01981 | 28939 ft | 393 kts | 28° |
| 2026-04-20 21:52 | -6.89088 | -33.99453 | 28938 ft | 393 kts | 28° |
| 2026-04-20 21:53 | -6.84217 | -33.96927 | 28944 ft | 394 kts | 28° |
| 2026-04-20 21:53 | -6.79340 | -33.94397 | 28941 ft | 394 kts | 28° |
| 2026-04-20 21:54 | -6.74471 | -33.91872 | 28941 ft | 394 kts | 28° |
| 2026-04-20 21:54 | -6.69622 | -33.89359 | 28940 ft | 394 kts | 28° |
| 2026-04-20 21:55 | -6.64742 | -33.86830 | 28942 ft | 394 kts | 28° |
| 2026-04-20 21:55 | -6.59874 | -33.84308 | 28936 ft | 394 kts | 28° |
| 2026-04-20 21:56 | -6.55024 | -33.81796 | 28938 ft | 393 kts | 28° |
| 2026-04-20 21:56 | -6.50150 | -33.79271 | 28939 ft | 393 kts | 28° |
| 2026-04-20 21:57 | -6.45274 | -33.76747 | 28944 ft | 394 kts | 28° |
| 2026-04-20 21:57 | -6.40390 | -33.74218 | 28941 ft | 394 kts | 28° |
| 2026-04-20 21:58 | -6.35550 | -33.71713 | 28935 ft | 394 kts | 28° |
| 2026-04-20 21:58 | -6.30667 | -33.69187 | 28932 ft | 396 kts | 28° |
| 2026-04-20 21:59 | -6.25780 | -33.66659 | 28939 ft | 395 kts | 28° |
| 2026-04-20 21:59 | -6.20891 | -33.64129 | 28942 ft | 394 kts | 28° |
| 2026-04-20 22:00 | -6.16010 | -33.61605 | 28939 ft | 394 kts | 28° |
| 2026-04-20 22:00 | -6.11157 | -33.59097 | 28944 ft | 394 kts | 28° |
| 2026-04-20 22:01 | -6.06270 | -33.56571 | 28935 ft | 394 kts | 28° |
| 2026-04-20 22:01 | -6.01385 | -33.54046 | 28939 ft | 396 kts | 28° |
| 2026-04-20 22:02 | -5.96479 | -33.51510 | 28946 ft | 396 kts | 28° |
| 2026-04-20 22:02 | -5.91608 | -33.48994 | 28942 ft | 396 kts | 28° |
| 2026-04-20 22:03 | -5.86705 | -33.46462 | 28938 ft | 396 kts | 28° |
| 2026-04-20 22:03 | -5.81801 | -33.43932 | 28941 ft | 396 kts | 28° |
| 2026-04-20 22:04 | -5.76901 | -33.41402 | 28935 ft | 395 kts | 28° |
| 2026-04-20 22:04 | -5.72033 | -33.38887 | 28942 ft | 395 kts | 29° |
| 2026-04-20 22:05 | -5.67125 | -33.36355 | 28942 ft | 396 kts | 28° |
| 2026-04-20 22:05 | -5.62216 | -33.33823 | 28938 ft | 396 kts | 28° |
| 2026-04-20 22:06 | -5.57318 | -33.31296 | 28943 ft | 396 kts | 28° |
| 2026-04-20 22:06 | -5.52443 | -33.28781 | 28940 ft | 396 kts | 28° |
| 2026-04-20 22:07 | -5.47538 | -33.26250 | 28934 ft | 396 kts | 28° |
| 2026-04-20 22:07 | -5.42631 | -33.23722 | 28940 ft | 396 kts | 28° |
| 2026-04-20 22:08 | -5.37723 | -33.21191 | 28946 ft | 397 kts | 28° |
| 2026-04-20 22:08 | -5.32810 | -33.18659 | 28934 ft | 396 kts | 28° |
| 2026-04-20 22:09 | -5.27932 | -33.16145 | 28940 ft | 397 kts | 28° |
| 2026-04-20 22:09 | -5.23023 | -33.13616 | 28937 ft | 396 kts | 28° |
| 2026-04-20 22:10 | -5.18113 | -33.11087 | 28939 ft | 396 kts | 28° |
| 2026-04-20 22:10 | -5.13203 | -33.08558 | 28937 ft | 396 kts | 28° |
| 2026-04-20 22:11 | -5.08288 | -33.06027 | 28726 ft | 400 kts | 29° |
| 2026-04-20 22:11 | -5.05813 | -33.04754 | 28470 ft | 397 kts | 29° |
| 2026-04-20 22:11 | -5.04187 | -33.03917 | 28246 ft | 397 kts | 28° |
| 2026-04-20 22:11 | -5.01721 | -33.02649 | 27659 ft | 399 kts | 28° |
| 2026-04-20 22:12 | -4.98576 | -33.01030 | 26468 ft | 409 kts | 28° |
| 2026-04-20 22:12 | -4.96088 | -32.99761 | 26461 ft | 390 kts | 29° |
| 2026-04-20 22:12 | -4.94466 | -32.98927 | 26072 ft | 388 kts | 29° |
| 2026-04-20 22:12 | -4.92067 | -32.97689 | 25549 ft | 385 kts | 29° |
| 2026-04-20 22:13 | -4.89699 | -32.96470 | 25024 ft | 382 kts | 29° |
| 2026-04-20 22:13 | -4.87369 | -32.95271 | 24525 ft | 380 kts | 29° |
| 2026-04-20 22:13 | -4.85028 | -32.94067 | 24028 ft | 377 kts | 29° |
| 2026-04-20 22:13 | -4.82697 | -32.92868 | 23525 ft | 375 kts | 28° |
| 2026-04-20 22:14 | -4.80379 | -32.91677 | 22998 ft | 371 kts | 29° |
| 2026-04-20 22:14 | -4.78092 | -32.90501 | 22529 ft | 366 kts | 28° |
| 2026-04-20 22:14 | -4.75837 | -32.89342 | 22043 ft | 362 kts | 28° |
| 2026-04-20 22:14 | -4.73606 | -32.88196 | 21559 ft | 358 kts | 29° |
| 2026-04-20 22:15 | -4.71399 | -32.87061 | 21089 ft | 354 kts | 28° |
| 2026-04-20 22:15 | -4.69214 | -32.85938 | 20621 ft | 351 kts | 28° |
| 2026-04-20 22:15 | -4.67053 | -32.84828 | 20162 ft | 348 kts | 28° |
| 2026-04-20 22:15 | -4.64930 | -32.83737 | 19701 ft | 346 kts | 28° |
| 2026-04-20 22:16 | -4.62791 | -32.82638 | 19245 ft | 343 kts | 28° |
| 2026-04-20 22:16 | -4.60657 | -32.81585 | 18785 ft | 342 kts | 22° |
| 2026-04-20 22:16 | -4.58345 | -32.81011 | 18352 ft | 340 kts | 11° |
| 2026-04-20 22:16 | -4.56005 | -32.80633 | 17835 ft | 339 kts | 11° |
| 2026-04-20 22:17 | -4.53721 | -32.80258 | 17437 ft | 334 kts | 11° |
| 2026-04-20 22:17 | -4.51432 | -32.79869 | 16987 ft | 331 kts | 11° |
| 2026-04-20 22:17 | -4.49172 | -32.79484 | 16550 ft | 328 kts | 12° |
| 2026-04-20 22:17 | -4.46929 | -32.79099 | 16117 ft | 325 kts | 12° |
| 2026-04-20 22:18 | -4.44704 | -32.78714 | 15689 ft | 323 kts | 12° |
| 2026-04-20 22:18 | -4.42497 | -32.78334 | 15263 ft | 321 kts | 12° |
| 2026-04-20 22:18 | -4.40304 | -32.77955 | 14835 ft | 319 kts | 12° |
| 2026-04-20 22:18 | -4.38121 | -32.77577 | 14415 ft | 317 kts | 12° |
| 2026-04-20 22:19 | -4.35949 | -32.77202 | 13994 ft | 316 kts | 12° |
| 2026-04-20 22:19 | -4.33783 | -32.76825 | 13556 ft | 315 kts | 12° |
| 2026-04-20 22:19 | -4.31633 | -32.76453 | 13154 ft | 312 kts | 12° |
| 2026-04-20 22:19 | -4.29527 | -32.76088 | 12755 ft | 309 kts | 12° |
| 2026-04-20 22:20 | -4.27413 | -32.75720 | 12341 ft | 307 kts | 12° |
| 2026-04-20 22:20 | -4.25312 | -32.75357 | 11930 ft | 305 kts | 12° |
| 2026-04-20 22:20 | -4.23228 | -32.74993 | 11531 ft | 303 kts | 12° |
| 2026-04-20 22:20 | -4.21143 | -32.74632 | 11126 ft | 302 kts | 12° |
| 2026-04-20 22:21 | -4.19078 | -32.74273 | 10729 ft | 301 kts | 12° |
| 2026-04-20 22:21 | -4.17014 | -32.73914 | 10327 ft | 300 kts | 12° |
| 2026-04-20 22:21 | -4.14961 | -32.73559 | 9928 ft | 299 kts | 12° |
| 2026-04-20 22:21 | -4.12906 | -32.73200 | 9504 ft | 298 kts | 12° |
| 2026-04-20 22:22 | -4.10989 | -32.72867 | 9164 ft | 295 kts | 12° |
| 2026-04-20 22:22 | -4.08944 | -32.72506 | 8703 ft | 295 kts | 12° |
| 2026-04-20 22:22 | -4.07035 | -32.72176 | 8422 ft | 291 kts | 12° |
| 2026-04-20 22:22 | -4.05066 | -32.71834 | 8021 ft | 291 kts | 12° |
| 2026-04-20 22:23 | -4.03092 | -32.71492 | 7742 ft | 287 kts | 12° |
| 2026-04-20 22:23 | -4.01119 | -32.71147 | 7334 ft | 289 kts | 12° |
| 2026-04-20 22:23 | -3.99140 | -32.70803 | 6957 ft | 288 kts | 11° |
| 2026-04-20 22:23 | -3.97165 | -32.70459 | 6577 ft | 288 kts | 11° |
| 2026-04-20 22:24 | -3.95185 | -32.70113 | 6191 ft | 288 kts | 12° |
| 2026-04-20 22:24 | -3.93210 | -32.69770 | 5800 ft | 288 kts | 12° |
| 2026-04-20 22:24 | -3.91244 | -32.69427 | 5428 ft | 285 kts | 12° |
| 2026-04-20 22:24 | -3.89313 | -32.69090 | 5050 ft | 276 kts | 12° |
| 2026-04-20 22:25 | -3.87453 | -32.68765 | 4671 ft | 267 kts | 11° |
| 2026-04-20 22:25 | -3.85660 | -32.68434 | 4309 ft | 257 kts | 17° |
| 2026-04-20 22:25 | -3.84180 | -32.67572 | 3956 ft | 241 kts | 52° |
| 2026-04-20 22:25 | -3.83552 | -32.66117 | 3672 ft | 223 kts | 89° |
| 2026-04-20 22:26 | -3.83663 | -32.64615 | 3438 ft | 211 kts | 99° |
| 2026-04-20 22:26 | -3.83818 | -32.63167 | 3154 ft | 208 kts | 97° |
| 2026-04-20 22:26 | -3.83940 | -32.61822 | 2877 ft | 201 kts | 97° |
| 2026-04-20 22:27 | -3.84147 | -32.59272 | 2492 ft | 180 kts | 97° |
| 2026-04-20 22:27 | -3.84239 | -32.58035 | 2306 ft | 173 kts | 97° |
| 2026-04-20 22:27 | -3.84333 | -32.56833 | 2245 ft | 175 kts | 97° |
| 2026-04-20 22:27 | -3.84425 | -32.55615 | 2161 ft | 176 kts | 97° |
| 2026-04-20 22:28 | -3.84519 | -32.54382 | 2058 ft | 178 kts | 97° |
| 2026-04-20 22:28 | -3.84614 | -32.53157 | 1974 ft | 172 kts | 97° |
| 2026-04-20 22:28 | -3.84702 | -32.52010 | 1839 ft | 159 kts | 97° |
| 2026-04-20 22:28 | -3.84779 | -32.50939 | 1713 ft | 151 kts | 97° |
| 2026-04-20 22:29 | -3.84860 | -32.49909 | 1514 ft | 149 kts | 97° |
| 2026-04-20 22:29 | -3.84939 | -32.48899 | 1280 ft | 142 kts | 97° |
| 2026-04-20 22:29 | -3.85012 | -32.47941 | 1077 ft | 136 kts | 97° |
| 2026-04-20 22:29 | -3.85082 | -32.46997 | 879 ft | 135 kts | 96° |
| 2026-04-20 22:30 | -3.85155 | -32.46068 | 724 ft | 134 kts | 96° |
| 2026-04-20 22:30 | -3.85221 | -32.45140 | 583 ft | 132 kts | 94° |
| 2026-04-20 22:30 | -3.85287 | -32.44221 | 490 ft | 131 kts | 95° |
| 2026-04-20 22:30 | -3.85358 | -32.43321 | 272 ft | 135 kts | 96° |
| 2026-04-20 22:31 | -3.85434 | -32.42447 | 191 ft | 102 kts | 93° |
| 2026-04-20 22:31 | -3.85473 | -32.41933 | 208 ft | 53 kts | 95° |
| 2026-04-20 22:31 | -3.85495 | -32.41644 | 198 ft | 29 kts | 95° |
| 2026-04-20 22:31 | -3.85480 | -32.41532 | 198 ft | 10 kts | 53° |
| 2026-04-20 22:32 | -3.85504 | -32.41501 | 190 ft | 8 kts | 216° |
| 2026-04-20 22:32 | -3.85506 | -32.41543 | 201 ft | 5 kts | 275° |
| 2026-04-20 22:32 | -3.85500 | -32.41578 | 205 ft | 5 kts | 279° |
| 2026-04-20 22:32 | -3.85497 | -32.41617 | 197 ft | 7 kts | 274° |
| 2026-04-20 22:33 | -3.85492 | -32.41680 | 200 ft | 11 kts | 274° |
| 2026-04-20 22:33 | -3.85486 | -32.41780 | 211 ft | 17 kts | 275° |
| 2026-04-20 22:33 | -3.85474 | -32.41925 | 205 ft | 24 kts | 274° |
| 2026-04-20 22:33 | -3.85460 | -32.42112 | 202 ft | 28 kts | 275° |
| 2026-04-20 22:34 | -3.85444 | -32.42323 | 195 ft | 32 kts | 275° |
| 2026-04-20 22:34 | -3.85428 | -32.42531 | 186 ft | 26 kts | 274° |
| 2026-04-20 22:34 | -3.85419 | -32.42674 | 183 ft | 19 kts | 274° |
| 2026-04-20 22:34 | -3.85444 | -32.42739 | 182 ft | 8 kts | 206° |
| 2026-04-20 22:35 | -3.85499 | -32.42758 | 178 ft | 10 kts | 199° |
| 2026-04-20 22:35 | -3.85529 | -32.42769 | 177 ft | 0 kts | 202° |
| 2026-04-20 22:35 | -3.85532 | -32.42770 | 177 ft | 1 kts | 204° |